Time;durP1;ratioP1;P1;durP2;ratioP2;P2;SDS_P1;SDS_P2;PMS_P1;PMS_P2;Temp;Humidity;BMP_temperature;BMP_pressure;BME280_temperature;BME280_humidity;BME280_pressure;Samples;Min_cycle;Max_cycle;Signal;HPM_P1;HPM_P2
2023/04/25 00:00:15;;;;;;;18.48;3.70;;;5.90;99.90;;;;;;5095166;28;20063;-64
2023/04/25 00:02:42;;;;;;;18.73;4.72;;;5.90;99.90;;;;;;5094782;28;20048;-64
2023/04/25 00:05:09;;;;;;;18.95;4.70;;;5.90;99.90;;;;;;5094801;28;20044;-62
2023/04/25 00:07:36;;;;;;;17.77;3.90;;;5.90;99.90;;;;;;5094583;28;20448;-62
2023/04/25 00:10:03;;;;;;;15.48;5.03;;;5.90;99.90;;;;;;5094608;28;20051;-63
2023/04/25 00:12:29;;;;;;;23.05;5.25;;;5.80;99.90;;;;;;5093285;28;20081;-63
2023/04/25 00:14:59;;;;;;;13.82;3.85;;;5.80;99.90;;;;;;5094536;28;20047;-64
2023/04/25 00:17:26;;;;;;;16.25;4.10;;;5.80;99.90;;;;;;5094706;28;20450;-63
2023/04/25 00:19:53;;;;;;;19.00;4.05;;;5.70;99.90;;;;;;5094392;28;20043;-62
2023/04/25 00:22:20;;;;;;;17.63;4.32;;;5.70;99.90;;;;;;5094644;28;20387;-63
2023/04/25 00:24:47;;;;;;;15.63;4.03;;;5.70;99.90;;;;;;5094492;28;20127;-63
2023/04/25 00:27:14;;;;;;;19.20;4.88;;;5.70;99.90;;;;;;5094200;28;20036;-64
2023/04/25 00:29:40;;;;;;;23.50;4.20;;;5.70;99.90;;;;;;5094550;28;20048;-64
2023/04/25 00:32:08;;;;;;;19.05;3.85;;;5.60;99.90;;;;;;5093333;28;20055;-63
2023/04/25 00:34:34;;;;;;;21.83;5.03;;;5.50;99.90;;;;;;5094438;28;20097;-63
2023/04/25 00:37:02;;;;;;;19.45;4.55;;;5.50;99.90;;;;;;5094081;28;20097;-63
2023/04/25 00:39:29;;;;;;;17.83;5.10;;;5.40;99.90;;;;;;5094079;28;20062;-64
2023/04/25 00:41:55;;;;;;;20.00;3.97;;;5.40;99.90;;;;;;5092691;28;20118;-64
2023/04/25 00:44:22;;;;;;;21.25;4.90;;;5.30;99.90;;;;;;5094315;28;20483;-64
2023/04/25 00:46:50;;;;;;;22.13;4.30;;;5.30;99.90;;;;;;5093094;28;20044;-63
2023/04/25 00:49:17;;;;;;;23.60;4.57;;;5.30;99.90;;;;;;5094555;28;20471;-61
2023/04/25 00:51:44;;;;;;;13.30;4.70;;;5.20;99.90;;;;;;5093777;28;20040;-63
2023/04/25 00:54:11;;;;;;;20.08;4.40;;;5.20;99.90;;;;;;5092626;28;20036;-63
2023/04/25 00:56:38;;;;;;;15.65;3.95;;;5.10;99.90;;;;;;5093598;28;20051;-63
2023/04/25 00:59:04;;;;;;;19.08;4.45;;;5.10;99.90;;;;;;5093335;28;20544;-63
2023/04/25 01:01:31;;;;;;;16.60;4.10;;;5.00;99.90;;;;;;5094024;28;20489;-63
2023/04/25 01:03:58;;;;;;;17.10;3.83;;;5.00;99.90;;;;;;5094215;28;20044;-64
2023/04/25 01:06:25;;;;;;;13.65;4.07;;;4.90;99.90;;;;;;5092545;28;20566;-64
2023/04/25 01:08:52;;;;;;;22.65;4.13;;;4.90;99.90;;;;;;5094074;28;20040;-63
2023/04/25 01:11:18;;;;;;;17.27;3.80;;;4.90;99.90;;;;;;5094082;28;20467;-64
2023/04/25 01:13:45;;;;;;;18.73;3.53;;;4.80;99.90;;;;;;5094379;28;20067;-64
2023/04/25 01:16:12;;;;;;;23.08;3.70;;;4.80;99.90;;;;;;5092989;28;20040;-64
2023/04/25 01:18:39;;;;;;;16.98;3.95;;;4.70;99.90;;;;;;5094078;28;20039;-64
2023/04/25 01:21:05;;;;;;;17.55;3.70;;;4.70;99.90;;;;;;5092139;28;20048;-64
2023/04/25 01:23:33;;;;;;;14.00;3.42;;;4.60;99.90;;;;;;5093967;28;20093;-63
2023/04/25 01:26:00;;;;;;;16.63;3.47;;;4.60;99.90;;;;;;5093561;28;20048;-63
2023/04/25 01:28:26;;;;;;;18.45;3.60;;;4.60;99.90;;;;;;5092082;28;20044;-65
2023/04/25 01:30:53;;;;;;;11.63;3.33;;;4.50;99.90;;;;;;5092049;28;20051;-64
2023/04/25 01:33:21;;;;;;;14.95;3.03;;;4.50;99.90;;;;;;5092464;28;20051;-61
2023/04/25 01:35:48;;;;;;;18.58;3.72;;;4.50;99.90;;;;;;5092312;28;20048;-62
2023/04/25 01:38:14;;;;;;;15.32;3.28;;;4.40;99.90;;;;;;5092504;28;20131;-63
2023/04/25 01:40:41;;;;;;;15.45;3.50;;;4.40;99.90;;;;;;5075802;28;20059;-63
2023/04/25 01:43:10;;;;;;;17.55;3.92;;;4.40;99.90;;;;;;5092239;28;20040;-64
2023/04/25 01:45:40;;;;;;;19.40;4.05;;;4.30;99.90;;;;;;5092144;28;20101;-63
2023/04/25 01:48:09;;;;;;;18.70;3.28;;;4.30;99.90;;;;;;5092133;28;20414;-61
2023/04/25 01:50:36;;;;;;;19.77;3.20;;;4.30;99.90;;;;;;5093915;28;20072;-64
2023/04/25 01:53:03;;;;;;;12.25;3.45;;;4.20;99.90;;;;;;5092399;28;20052;-62
2023/04/25 01:55:29;;;;;;;18.27;3.50;;;4.20;99.90;;;;;;5093672;28;20098;-63
2023/04/25 01:58:12;;;;;;;14.88;3.33;;;4.20;99.90;;;;;;5092359;28;20044;-63
2023/04/25 02:01:10;;;;;;;14.35;3.00;;;4.10;99.90;;;;;;5081081;28;20048;-63
2023/04/25 02:03:46;;;;;;;16.30;3.60;;;4.10;99.90;;;;;;5092444;28;20490;-63
2023/04/25 02:06:22;;;;;;;15.88;3.13;;;4.10;99.90;;;;;;5092312;28;20044;-64
2023/04/25 02:08:51;;;;;;;10.98;2.83;;;4.00;99.90;;;;;;5093136;28;20071;-63
2023/04/25 02:11:18;;;;;;;22.15;3.67;;;4.00;99.90;;;;;;5095923;28;20487;-64
2023/04/25 02:13:54;;;;;;;11.52;3.22;;;4.00;99.90;;;;;;5096029;28;20044;-63
2023/04/25 02:16:36;;;;;;;19.65;3.42;;;4.00;99.90;;;;;;5095987;28;20075;-63
2023/04/25 02:19:06;;;;;;;16.02;3.53;;;4.00;99.90;;;;;;5095659;28;20402;-63
2023/04/25 02:21:35;;;;;;;15.00;3.05;;;3.90;99.90;;;;;;5095393;28;20441;-64
2023/04/25 02:24:03;;;;;;;15.90;3.40;;;3.90;99.90;;;;;;5096087;28;20051;-63
2023/04/25 02:26:30;;;;;;;9.52;3.35;;;3.90;99.90;;;;;;5095636;28;20043;-63
2023/04/25 02:28:56;;;;;;;13.52;3.28;;;3.90;99.90;;;;;;5095933;28;20139;-64
2023/04/25 02:31:23;;;;;;;14.15;3.30;;;3.80;99.90;;;;;;5078302;28;20522;-64
2023/04/25 02:33:50;;;;;;;13.43;3.20;;;3.80;99.90;;;;;;5095635;28;20090;-63
2023/04/25 02:36:17;;;;;;;11.57;3.30;;;3.80;99.90;;;;;;5095128;28;20036;-61
2023/04/25 02:38:44;;;;;;;12.00;3.72;;;3.80;99.90;;;;;;5095150;28;20050;-64
2023/04/25 02:41:11;;;;;;;15.43;3.17;;;3.80;99.90;;;;;;5096180;28;20044;-63
2023/04/25 02:43:38;;;;;;;13.35;3.20;;;3.80;99.90;;;;;;5096245;28;20040;-62
2023/04/25 02:46:04;;;;;;;9.57;2.97;;;3.80;99.90;;;;;;5095266;28;20047;-63
2023/04/25 02:48:31;;;;;;;15.55;3.83;;;3.70;99.90;;;;;;5096518;28;20048;-63
2023/04/25 02:50:58;;;;;;;16.02;3.83;;;3.70;99.90;;;;;;5078227;28;20048;-63
2023/04/25 02:53:25;;;;;;;11.45;3.15;;;3.60;99.90;;;;;;5078374;28;20048;-64
2023/04/25 02:55:53;;;;;;;14.57;3.70;;;3.60;99.90;;;;;;5095300;28;20036;-63
2023/04/25 02:58:20;;;;;;;9.82;3.08;;;3.60;99.90;;;;;;5094955;28;20059;-63
2023/04/25 03:00:50;;;;;;;12.57;3.67;;;3.60;99.90;;;;;;5094650;28;20471;-62
2023/04/25 03:03:17;;;;;;;12.30;3.47;;;3.50;99.90;;;;;;5096251;28;20137;-63
2023/04/25 03:05:46;;;;;;;16.92;3.83;;;3.50;99.90;;;;;;5094714;28;20043;-63
2023/04/25 03:08:14;;;;;;;16.77;4.68;;;3.50;99.90;;;;;;5095052;28;20055;-62
2023/04/25 03:10:42;;;;;;;13.98;3.22;;;3.50;99.90;;;;;;5094587;28;20044;-63
2023/04/25 03:13:10;;;;;;;11.18;4.35;;;3.50;99.90;;;;;;5094744;28;20047;-60
2023/04/25 03:15:37;;;;;;;16.42;4.28;;;3.50;99.90;;;;;;5094825;28;20050;-62
2023/04/25 03:18:04;;;;;;;18.38;3.97;;;3.50;99.90;;;;;;5094459;28;20036;-63
2023/04/25 03:20:31;;;;;;;16.77;3.63;;;3.40;99.90;;;;;;5093122;28;20085;-62
2023/04/25 03:22:58;;;;;;;18.35;4.38;;;3.50;99.90;;;;;;5095596;28;20032;-63
2023/04/25 03:25:26;;;;;;;13.20;3.63;;;3.40;99.90;;;;;;5094364;28;20111;-63
2023/04/25 03:27:53;;;;;;;14.43;3.78;;;3.40;99.90;;;;;;5095908;28;20036;-62
2023/04/25 03:30:20;;;;;;;12.95;3.47;;;3.40;99.90;;;;;;5095279;28;20062;-64
2023/04/25 03:32:47;;;;;;;17.80;3.22;;;3.30;99.90;;;;;;5094530;28;20082;-62
2023/04/25 03:35:16;;;;;;;11.73;3.80;;;3.30;99.90;;;;;;5094540;28;20040;-63
2023/04/25 03:37:46;;;;;;;19.33;4.30;;;3.30;99.90;;;;;;5094484;28;20043;-65
2023/04/25 03:40:18;;;;;;;10.63;3.47;;;3.30;99.90;;;;;;5094358;28;20075;-62
2023/04/25 03:43:11;;;;;;;14.05;3.65;;;3.30;99.90;;;;;;5093860;28;20044;-61
2023/04/25 03:45:42;;;;;;;11.35;3.42;;;3.20;99.90;;;;;;5093992;28;20411;-63
2023/04/25 03:48:09;;;;;;;17.15;4.13;;;3.20;99.90;;;;;;5095472;28;20124;-62
2023/04/25 03:50:36;;;;;;;15.57;3.50;;;3.20;99.90;;;;;;5093865;28;20040;-62
2023/04/25 03:53:03;;;;;;;11.77;3.03;;;3.20;99.90;;;;;;5093834;28;20134;-64
2023/04/25 03:55:41;;;;;;;10.02;3.28;;;3.20;99.90;;;;;;5093620;28;20040;-62
2023/04/25 03:58:09;;;;;;;14.30;3.58;;;3.20;99.90;;;;;;5093619;28;20499;-64
2023/04/25 04:00:36;;;;;;;15.43;3.78;;;3.10;99.90;;;;;;5094324;28;20131;-62
2023/04/25 04:03:03;;;;;;;10.50;3.30;;;3.10;99.90;;;;;;5093609;28;20161;-65
2023/04/25 04:05:30;;;;;;;11.77;3.25;;;3.10;99.90;;;;;;5093394;28;20067;-65
2023/04/25 04:07:57;;;;;;;10.43;3.30;;;3.10;99.90;;;;;;5093720;28;20061;-64
2023/04/25 04:10:25;;;;;;;17.05;3.78;;;3.10;99.90;;;;;;5093313;28;20044;-63
2023/04/25 04:12:54;;;;;;;15.90;3.40;;;3.10;99.90;;;;;;5093427;28;20058;-64
2023/04/25 04:15:21;;;;;;;13.23;3.33;;;3.00;99.90;;;;;;5093578;28;20085;-64
2023/04/25 04:17:48;;;;;;;17.55;3.22;;;3.00;99.90;;;;;;5093416;28;20479;-62
2023/04/25 04:20:15;;;;;;;16.80;3.95;;;3.00;99.90;;;;;;5093264;28;20040;-63
2023/04/25 04:22:42;;;;;;;15.90;3.72;;;3.00;99.90;;;;;;5093217;28;20044;-64
2023/04/25 04:25:11;;;;;;;11.88;3.70;;;3.00;99.90;;;;;;5093382;28;20475;-64
2023/04/25 04:27:57;;;;;;;20.50;3.95;;;2.90;99.90;;;;;;5094919;28;20387;-61
2023/04/25 04:30:36;;;;;;;18.70;3.67;;;2.90;99.90;;;;;;5092836;28;20048;-62
2023/04/25 04:33:05;;;;;;;18.40;3.88;;;2.90;99.90;;;;;;5092753;28;20048;-64
2023/04/25 04:35:33;;;;;;;16.55;3.65;;;2.90;99.90;;;;;;5092891;28;20044;-65
2023/04/25 04:37:59;;;;;;;10.65;3.55;;;2.90;99.90;;;;;;5093079;28;20130;-64
2023/04/25 04:40:32;;;;;;;15.93;3.17;;;2.90;99.90;;;;;;5092700;28;20040;-63
2023/04/25 04:43:11;;;;;;;15.10;2.90;;;2.90;99.90;;;;;;5092774;28;20044;-64
2023/04/25 04:45:56;;;;;;;11.27;3.15;;;2.80;99.90;;;;;;5094545;28;20131;-63
2023/04/25 04:48:23;;;;;;;12.73;3.30;;;2.80;99.90;;;;;;5094646;28;20052;-63
2023/04/25 04:51:08;;;;;;;17.98;3.55;;;2.80;99.90;;;;;;5093312;28;20448;-63
2023/04/25 04:53:52;;;;;;;17.98;3.22;;;2.80;99.90;;;;;;5094507;28;20051;-62
2023/04/25 04:56:38;;;;;;;12.57;3.47;;;2.90;99.90;;;;;;5094492;28;20048;-63
2023/04/25 04:59:26;;;;;;;15.27;3.30;;;2.90;99.90;;;;;;5092432;28;20326;-65
2023/04/25 05:02:06;;;;;;;12.50;3.47;;;2.80;99.90;;;;;;5092838;28;20093;-63
2023/04/25 05:04:48;;;;;;;12.40;3.00;;;2.80;99.90;;;;;;5094033;28;20125;-62
2023/04/25 05:07:33;;;;;;;17.92;3.35;;;2.90;99.90;;;;;;5093984;28;20055;-63
2023/04/25 05:10:23;;;;;;;18.25;3.65;;;2.90;99.90;;;;;;5092523;28;20058;-63
2023/04/25 05:12:56;;;;;;;18.35;3.50;;;2.90;99.90;;;;;;5094042;28;20206;-64
2023/04/25 05:15:45;;;;;;;14.95;2.97;;;3.00;99.90;;;;;;5094031;28;20135;-62
2023/04/25 05:18:30;;;;;;;16.52;3.50;;;3.00;99.90;;;;;;5094096;28;20048;-61
2023/04/25 05:21:05;;;;;;;;;;;3.00;99.90;;;;;;5094271;28;20034;-63
2023/04/25 05:24:01;;;;;;;9.18;2.83;;;3.00;99.90;;;;;;5089495;28;19920;-63
2023/04/25 05:27:03;;;;;;;12.43;4.10;;;3.10;99.90;;;;;;5093417;28;20130;-63
2023/04/25 05:29:43;;;;;;;18.25;2.95;;;3.10;99.90;;;;;;5077792;28;20093;-62
2023/04/25 05:32:30;;;;;;;13.77;2.90;;;3.10;99.90;;;;;;5072647;28;20399;-63
2023/04/25 05:34:57;;;;;;;12.00;2.70;;;3.10;99.90;;;;;;5092718;28;20353;-63
2023/04/25 05:37:27;;;;;;;8.85;3.00;;;3.10;99.90;;;;;;5092210;28;20058;-62
2023/04/25 05:39:58;;;;;;;12.48;3.17;;;3.10;99.90;;;;;;5091496;28;20082;-63
2023/04/25 05:42:45;;;;;;;9.18;3.03;;;3.10;99.90;;;;;;5093497;28;20044;-63
2023/04/25 05:45:20;;;;;;;15.70;3.45;;;3.10;99.90;;;;;;5097700;28;20055;-62
2023/04/25 05:48:05;;;;;;;11.30;2.67;;;3.10;99.90;;;;;;5096661;28;20065;-62
2023/04/25 05:50:43;;;;;;;13.32;3.47;;;3.10;99.90;;;;;;5097846;28;20050;-63
2023/04/25 05:53:23;;;;;;;13.40;3.58;;;3.20;99.90;;;;;;5096907;28;20055;-62
2023/04/25 05:55:58;;;;;;;11.90;3.25;;;3.20;99.90;;;;;;5095034;28;20051;-62
2023/04/25 05:58:26;;;;;;;14.02;3.40;;;3.20;99.90;;;;;;5094695;28;20446;-63
2023/04/25 06:00:54;;;;;;;11.32;3.40;;;3.20;99.90;;;;;;5096096;28;20032;-62
2023/04/25 06:03:22;;;;;;;12.55;3.15;;;3.20;99.90;;;;;;5094899;28;20093;-63
2023/04/25 06:05:50;;;;;;;11.43;3.20;;;3.30;99.90;;;;;;5094534;28;20037;-62
2023/04/25 06:08:18;;;;;;;11.75;3.10;;;3.30;99.90;;;;;;5094607;28;20056;-63
2023/04/25 06:10:45;;;;;;;17.15;3.58;;;3.30;99.90;;;;;;5095665;28;20101;-61
2023/04/25 06:13:13;;;;;;;14.95;3.95;;;3.30;99.90;;;;;;5097249;28;20036;-63
2023/04/25 06:15:39;;;;;;;12.45;4.20;;;3.30;99.90;;;;;;5096034;28;20591;-63
2023/04/25 06:18:06;;;;;;;12.93;3.58;;;3.40;99.90;;;;;;5095605;28;20040;-62
2023/04/25 06:20:33;;;;;;;15.57;3.50;;;3.40;99.90;;;;;;5097003;28;20042;-63
2023/04/25 06:23:00;;;;;;;13.98;3.20;;;3.40;99.90;;;;;;5095514;28;20094;-63
2023/04/25 06:25:43;;;;;;;13.07;3.35;;;3.50;99.90;;;;;;5096012;28;20032;-62
2023/04/25 06:28:11;;;;;;;13.63;3.22;;;3.50;99.90;;;;;;5078897;28;20437;-63
2023/04/25 06:30:39;;;;;;;13.10;3.83;;;3.50;99.90;;;;;;5095796;28;20046;-63
2023/04/25 06:33:10;;;;;;;10.45;3.10;;;3.50;99.90;;;;;;5095884;28;20051;-63
2023/04/25 06:35:38;;;;;;;11.70;3.08;;;3.60;99.90;;;;;;5095469;28;20077;-63
2023/04/25 06:38:10;;;;;;;12.90;3.28;;;3.70;99.90;;;;;;5095568;28;20119;-63
2023/04/25 06:40:38;;;;;;;14.65;3.72;;;3.70;99.90;;;;;;5095327;28;20134;-62
2023/04/25 06:43:06;;;;;;;11.65;3.35;;;3.70;99.90;;;;;;5095706;28;20036;-63
2023/04/25 06:45:48;;;;;;;11.32;3.00;;;3.80;99.90;;;;;;5095746;28;20131;-62
2023/04/25 06:48:16;;;;;;;9.05;2.92;;;3.80;99.90;;;;;;5094931;28;20048;-62
2023/04/25 06:50:43;;;;;;;11.00;2.80;;;3.90;99.90;;;;;;5095215;28;20040;-63
2023/04/25 06:53:11;;;;;;;17.80;3.53;;;3.90;99.90;;;;;;5095522;28;20048;-63
2023/04/25 06:55:39;;;;;;;14.95;3.08;;;3.90;99.90;;;;;;5095309;28;20040;-63
2023/04/25 06:58:16;;;;;;;13.43;3.08;;;4.00;99.90;;;;;;5095190;28;20055;-62
2023/04/25 07:01:02;;;;;;;11.93;3.10;;;4.00;99.90;;;;;;5095042;28;20139;-63
2023/04/25 07:03:30;;;;;;;12.40;3.42;;;4.10;99.90;;;;;;5095047;28;20066;-63
2023/04/25 07:06:01;;;;;;;10.95;3.15;;;4.10;99.90;;;;;;5095125;28;20044;-62
2023/04/25 07:08:28;;;;;;;17.08;4.00;;;4.20;99.90;;;;;;5078571;28;20040;-64
2023/04/25 07:10:56;;;;;;;13.02;3.08;;;4.20;99.90;;;;;;5094802;28;20040;-62
2023/04/25 07:13:23;;;;;;;9.15;2.80;;;4.20;99.90;;;;;;5095979;28;20051;-62
2023/04/25 07:15:50;;;;;;;14.02;2.78;;;4.20;99.90;;;;;;5094779;28;20054;-63
2023/04/25 07:18:19;;;;;;;12.27;3.15;;;4.30;99.90;;;;;;5078040;28;20047;-62
2023/04/25 07:20:46;;;;;;;10.10;3.42;;;4.30;99.90;;;;;;5094775;28;20036;-63
2023/04/25 07:23:13;;;;;;;12.27;3.10;;;4.40;99.90;;;;;;5095775;28;20036;-63
2023/04/25 07:25:41;;;;;;;11.68;2.70;;;4.40;99.90;;;;;;5078440;28;20093;-62
2023/04/25 07:28:08;;;;;;;9.82;3.30;;;4.40;99.90;;;;;;5094512;28;20044;-63
2023/04/25 07:30:35;;;;;;;14.35;3.50;;;4.50;99.90;;;;;;5094362;28;20398;-62
2023/04/25 07:33:03;;;;;;;11.25;3.08;;;4.60;99.90;;;;;;5094227;28;20526;-60
2023/04/25 07:35:29;;;;;;;12.10;3.00;;;4.60;99.90;;;;;;5094282;28;20064;-62
2023/04/25 07:37:57;;;;;;;11.98;3.42;;;4.70;99.90;;;;;;5093944;28;20052;-63
2023/04/25 07:40:23;;;;;;;16.33;3.33;;;4.70;99.90;;;;;;5094324;28;20032;-63
2023/04/25 07:42:55;;;;;;;11.50;3.08;;;4.70;99.90;;;;;;5078792;28;20086;-62
2023/04/25 07:45:32;;;;;;;9.63;3.33;;;4.80;99.90;;;;;;5094166;28;20052;-63
2023/04/25 07:48:00;;;;;;;15.07;3.55;;;4.80;99.90;;;;;;5094556;28;20052;-61
2023/04/25 07:50:29;;;;;;;11.35;2.78;;;4.90;99.90;;;;;;5094151;28;20036;-64
2023/04/25 07:52:56;;;;;;;10.45;2.97;;;4.90;99.90;;;;;;5093920;28;20135;-62
2023/04/25 07:55:29;;;;;;;14.57;3.15;;;4.90;99.90;;;;;;5094577;28;20131;-62
2023/04/25 07:58:02;;;;;;;10.38;2.63;;;4.90;99.90;;;;;;5094234;28;20056;-63
2023/04/25 08:00:31;;;;;;;11.07;3.10;;;5.00;99.90;;;;;;5093800;28;20047;-63
2023/04/25 08:03:18;;;;;;;13.32;3.00;;;5.00;99.90;;;;;;5094820;28;20483;-63
2023/04/25 08:05:45;;;;;;;15.02;2.90;;;5.10;99.90;;;;;;5093615;28;20040;-64
2023/04/25 08:08:13;;;;;;;11.75;2.75;;;5.20;99.90;;;;;;5093535;28;20088;-63
2023/04/25 08:10:40;;;;;;;14.98;3.67;;;5.20;99.90;;;;;;5093602;28;20408;-62
2023/04/25 08:13:08;;;;;;;11.20;2.90;;;5.30;99.90;;;;;;5093916;28;20123;-64
2023/04/25 08:15:35;;;;;;;11.95;2.85;;;5.30;99.90;;;;;;5093531;28;20059;-63
2023/04/25 08:18:02;;;;;;;18.50;3.15;;;5.40;99.90;;;;;;5093347;28;20032;-62
2023/04/25 08:20:31;;;;;;;14.85;3.53;;;5.40;99.90;;;;;;5094039;28;20040;-62
2023/04/25 08:23:00;;;;;;;11.35;2.75;;;5.40;99.90;;;;;;5093207;28;20036;-61
2023/04/25 08:25:59;;;;;;;13.80;2.88;;;5.40;99.90;;;;;;5083668;28;20123;-63
2023/04/25 08:28:28;;;;;;;11.90;2.80;;;5.40;99.90;;;;;;5093336;28;20126;-63
2023/04/25 08:30:57;;;;;;;10.43;3.00;;;5.50;99.90;;;;;;5093169;28;20134;-63
2023/04/25 08:33:31;;;;;;;10.93;3.30;;;5.60;99.90;;;;;;5093602;28;20518;-62
2023/04/25 08:36:05;;;;;;;9.25;3.20;;;5.70;99.90;;;;;;5093246;28;20048;-62
2023/04/25 08:38:32;;;;;;;11.95;2.88;;;5.80;99.90;;;;;;5093049;28;20040;-64
2023/04/25 08:41:01;;;;;;;11.18;2.75;;;5.90;99.90;;;;;;5092949;28;20036;-62
2023/04/25 08:43:27;;;;;;;14.20;3.38;;;6.00;99.90;;;;;;5093158;28;20036;-63
2023/04/25 08:45:55;;;;;;;9.95;2.58;;;6.00;99.90;;;;;;5093161;28;20086;-63
2023/04/25 08:48:32;;;;;;;10.57;2.20;;;6.00;99.90;;;;;;5092860;28;20056;-64
2023/04/25 08:50:59;;;;;;;13.60;2.78;;;6.10;99.90;;;;;;5093904;28;20143;-63
2023/04/25 08:53:27;;;;;;;10.15;2.75;;;6.10;99.90;;;;;;5092854;28;20044;-63
2023/04/25 08:55:56;;;;;;;13.55;4.10;;;6.10;99.90;;;;;;5093036;28;20044;-63
2023/04/25 08:58:24;;;;;;;17.65;2.88;;;6.20;99.90;;;;;;5075898;28;20044;-63
2023/04/25 09:00:51;;;;;;;7.43;2.05;;;6.20;99.90;;;;;;5093164;28;20039;-63
2023/04/25 09:03:19;;;;;;;9.02;2.50;;;6.30;99.90;;;;;;5092832;28;20394;-62
2023/04/25 09:05:47;;;;;;;7.32;2.03;;;6.40;99.90;;;;;;5093044;28;20044;-62
2023/04/25 09:08:15;;;;;;;7.53;2.22;;;6.40;99.90;;;;;;5093805;28;20064;-63
2023/04/25 09:10:42;;;;;;;9.88;2.20;;;6.50;99.90;;;;;;5092651;28;20056;-63
2023/04/25 09:13:10;;;;;;;10.80;2.17;;;6.50;99.90;;;;;;5093058;28;20368;-62
2023/04/25 09:16:02;;;;;;;16.13;2.70;;;6.60;99.90;;;;;;5094262;28;20490;-63
2023/04/25 09:18:37;;;;;;;9.55;2.67;;;6.70;99.90;;;;;;5091771;28;20066;-61
2023/04/25 09:21:04;;;;;;;7.60;2.50;;;6.80;99.90;;;;;;5092440;28;20047;-63
2023/04/25 09:23:33;;;;;;;6.03;2.03;;;6.90;99.90;;;;;;5092128;28;20043;-63
2023/04/25 09:26:00;;;;;;;8.50;1.80;;;7.00;99.90;;;;;;5093513;28;20036;-63
2023/04/25 09:28:27;;;;;;;8.80;2.30;;;7.20;99.90;;;;;;5076314;28;20044;-64
2023/04/25 09:30:57;;;;;;;10.57;2.20;;;7.20;99.90;;;;;;5092165;28;20109;-62
2023/04/25 09:33:50;;;;;;;11.82;3.30;;;7.20;99.90;;;;;;5090700;28;20050;-61
2023/04/25 09:36:20;;;;;;;9.68;2.35;;;7.20;99.90;;;;;;5092306;28;20062;-62
2023/04/25 09:38:58;;;;;;;7.22;2.38;;;7.40;99.90;;;;;;5092729;28;20040;-63
2023/04/25 09:41:32;;;;;;;7.03;2.28;;;7.50;99.90;;;;;;5092350;28;20071;-63
2023/04/25 09:44:01;;;;;;;8.60;2.30;;;7.70;99.90;;;;;;5092422;28;20093;-62
2023/04/25 09:46:38;;;;;;;9.05;2.30;;;7.70;99.90;;;;;;5092670;28;20131;-65
2023/04/25 09:49:10;;;;;;;11.65;3.95;;;7.70;99.90;;;;;;5092837;28;20044;-62
2023/04/25 09:51:47;;;;;;;7.85;1.85;;;7.80;99.90;;;;;;5092257;28;20070;-63
2023/04/25 09:54:13;;;;;;;8.48;2.17;;;7.80;99.90;;;;;;5093338;28;20044;-64
2023/04/25 09:56:47;;;;;;;7.05;2.00;;;7.70;99.90;;;;;;5092272;28;20157;-64
2023/04/25 09:59:14;;;;;;;9.25;2.75;;;7.70;99.90;;;;;;5092093;28;20048;-64
2023/04/25 10:01:41;;;;;;;12.15;2.50;;;7.80;99.90;;;;;;5091761;28;20039;-61
2023/04/25 10:04:18;;;;;;;5.78;1.70;;;7.80;99.90;;;;;;5092621;28;20044;-63
2023/04/25 10:06:52;;;;;;;5.57;1.90;;;7.90;99.90;;;;;;5091963;28;20094;-62
2023/04/25 10:09:19;;;;;;;7.95;2.10;;;8.00;99.90;;;;;;5092165;28;20101;-63
2023/04/25 10:11:47;;;;;;;9.05;1.90;;;8.10;99.90;;;;;;5093794;28;20044;-63
2023/04/25 10:14:14;;;;;;;5.20;1.70;;;8.10;99.90;;;;;;5093335;28;20097;-62
2023/04/25 10:16:41;;;;;;;6.82;1.77;;;8.30;99.90;;;;;;5093334;28;20082;-63
2023/04/25 10:19:08;;;;;;;11.05;1.98;;;8.50;99.90;;;;;;5093485;28;20093;-62
2023/04/25 10:21:34;;;;;;;6.43;1.70;;;8.60;99.90;;;;;;5093390;28;20059;-62
2023/04/25 10:24:01;;;;;;;7.35;1.60;;;8.60;99.60;;;;;;5093316;28;20483;-63
2023/04/25 10:26:28;;;;;;;7.60;2.03;;;8.70;97.80;;;;;;5093767;28;20471;-61
2023/04/25 10:28:57;;;;;;;6.93;1.88;;;8.80;99.30;;;;;;5091923;28;20126;-62
2023/04/25 10:31:24;;;;;;;5.40;1.90;;;8.80;97.80;;;;;;5096884;28;20044;-63
2023/04/25 10:33:54;;;;;;;6.53;1.42;;;8.90;97.90;;;;;;5097168;28;20131;-64
2023/04/25 10:36:21;;;;;;;5.40;1.27;;;9.10;95.40;;;;;;5095915;28;20493;-63
2023/04/25 10:38:48;;;;;;;6.53;2.15;;;9.20;96.50;;;;;;5097093;28;20494;-63
2023/04/25 10:41:14;;;;;;;6.28;1.50;;;9.20;97.40;;;;;;5096011;28;20033;-64
2023/04/25 10:43:41;;;;;;;6.07;1.90;;;9.30;97.90;;;;;;5096767;28;20051;-63
2023/04/25 10:46:08;;;;;;;6.05;1.75;;;9.30;97.50;;;;;;5095288;28;20376;-62
2023/04/25 10:48:35;;;;;;;5.97;1.40;;;9.20;97.10;;;;;;5096730;28;20036;-62
2023/04/25 10:51:02;;;;;;;7.13;1.70;;;9.20;96.20;;;;;;5095150;28;20058;-63
2023/04/25 10:53:29;;;;;;;5.80;1.60;;;9.10;96.30;;;;;;5095567;28;20054;-60
2023/04/25 10:55:56;;;;;;;8.55;2.22;;;9.20;96.20;;;;;;5095398;28;20044;-62
2023/04/25 10:58:23;;;;;;;5.53;1.60;;;9.20;96.70;;;;;;5095778;28;20056;-63
2023/04/25 11:00:50;;;;;;;6.93;2.03;;;9.20;96.40;;;;;;5096568;28;20066;-63
2023/04/25 11:03:24;;;;;;;6.38;1.98;;;9.30;96.30;;;;;;5096212;28;20048;-63
2023/04/25 11:05:51;;;;;;;4.90;1.40;;;9.40;95.80;;;;;;5096334;28;20044;-64
2023/04/25 11:08:23;;;;;;;7.55;1.70;;;9.40;95.30;;;;;;5095933;28;20582;-64
2023/04/25 11:10:50;;;;;;;6.82;1.80;;;9.50;96.30;;;;;;5095923;28;20184;-62
2023/04/25 11:13:18;;;;;;;4.55;1.30;;;9.60;94.60;;;;;;5096579;28;20048;-64
2023/04/25 11:15:44;;;;;;;3.70;1.52;;;9.70;92.50;;;;;;5095758;28;20044;-62
2023/04/25 11:18:11;;;;;;;6.05;1.67;;;9.70;94.60;;;;;;5095810;28;20040;-62
2023/04/25 11:20:38;;;;;;;5.95;1.70;;;9.70;94.50;;;;;;5095768;28;20040;-61
2023/04/25 11:23:05;;;;;;;5.35;1.58;;;9.80;94.40;;;;;;5095846;28;20040;-61
2023/04/25 11:25:31;;;;;;;6.05;1.60;;;9.90;94.80;;;;;;5096108;28;20042;-63
2023/04/25 11:28:01;;;;;;;5.88;1.63;;;9.90;94.30;;;;;;5096009;28;20079;-63
2023/04/25 11:30:30;;;;;;;8.95;2.67;;;9.70;93.60;;;;;;5095508;28;20064;-62
2023/04/25 11:32:57;;;;;;;6.25;2.00;;;9.70;94.20;;;;;;5095998;28;20043;-63
2023/04/25 11:35:25;;;;;;;5.80;2.03;;;9.70;94.10;;;;;;5095388;28;20154;-63
2023/04/25 11:37:52;;;;;;;4.75;1.85;;;9.70;94.20;;;;;;5093894;28;20467;-63
2023/04/25 11:40:19;;;;;;;6.00;2.40;;;9.60;94.10;;;;;;5094109;28;20068;-61
2023/04/25 11:42:46;;;;;;;6.25;1.88;;;9.70;94.00;;;;;;5093444;28;20040;-63
2023/04/25 11:45:12;;;;;;;7.30;1.90;;;9.60;93.90;;;;;;5095630;28;20493;-62
2023/04/25 11:47:39;;;;;;;6.03;2.28;;;9.60;93.70;;;;;;5095577;28;20036;-61
2023/04/25 11:50:06;;;;;;;8.10;2.15;;;9.60;94.40;;;;;;5095119;28;20048;-63
2023/04/25 11:52:33;;;;;;;8.02;2.20;;;9.60;93.80;;;;;;5095605;28;20055;-62
2023/04/25 11:55:00;;;;;;;8.98;2.38;;;9.70;95.30;;;;;;5094871;28;20039;-63
2023/04/25 11:57:26;;;;;;;11.10;2.67;;;9.90;94.40;;;;;;5095124;28;20037;-63
2023/04/25 11:59:53;;;;;;;5.28;1.85;;;10.10;94.90;;;;;;5095140;28;20044;-62
2023/04/25 12:02:20;;;;;;;3.63;1.63;;;10.40;95.10;;;;;;5095595;28;20038;-62
2023/04/25 12:04:47;;;;;;;6.43;1.80;;;10.70;93.50;;;;;;5095471;28;20062;-62
2023/04/25 12:07:14;;;;;;;8.07;2.25;;;10.80;93.80;;;;;;5095000;28;20617;-62
2023/04/25 12:09:41;;;;;;;5.65;2.30;;;10.80;92.00;;;;;;5094824;28;20059;-65
2023/04/25 12:12:08;;;;;;;8.98;2.38;;;10.50;92.00;;;;;;5095221;28;20101;-63
2023/04/25 12:14:34;;;;;;;4.60;1.80;;;10.30;92.30;;;;;;5095273;28;20142;-63
2023/04/25 12:17:01;;;;;;;6.65;2.30;;;10.10;92.40;;;;;;5094890;28;20052;-63
2023/04/25 12:19:28;;;;;;;6.53;2.20;;;10.00;93.60;;;;;;5095040;28;20037;-62
2023/04/25 12:21:55;;;;;;;8.02;2.42;;;9.90;91.70;;;;;;5094752;28;20387;-64
2023/04/25 12:24:25;;;;;;;3.92;2.05;;;10.00;92.90;;;;;;5094839;28;20040;-62
2023/04/25 12:26:52;;;;;;;6.38;2.05;;;10.10;92.80;;;;;;5095156;28;20036;-63
2023/04/25 12:29:19;;;;;;;4.93;2.20;;;10.20;93.30;;;;;;5093691;28;20050;-63
2023/04/25 12:31:46;;;;;;;8.80;2.10;;;10.50;93.20;;;;;;5094610;28;20528;-62
2023/04/25 12:34:13;;;;;;;8.38;2.10;;;10.70;91.70;;;;;;5094243;28;20040;-62
2023/04/25 12:36:40;;;;;;;5.82;1.83;;;10.70;91.20;;;;;;5093194;28;20090;-62
2023/04/25 12:39:07;;;;;;;6.03;1.88;;;10.70;91.00;;;;;;5093277;28;20056;-62
2023/04/25 12:41:34;;;;;;;4.75;1.75;;;10.70;90.60;;;;;;5094075;28;20048;-64
2023/04/25 12:44:01;;;;;;;8.20;2.20;;;10.80;90.90;;;;;;5094332;28;20425;-61
2023/04/25 12:46:28;;;;;;;4.47;1.90;;;10.90;90.80;;;;;;5094885;28;20040;-61
2023/04/25 12:48:55;;;;;;;5.38;1.80;;;11.00;90.40;;;;;;5094720;28;20048;-63
2023/04/25 12:51:28;;;;;;;5.10;2.00;;;11.00;90.40;;;;;;5094404;28;20044;-60
2023/04/25 12:53:55;;;;;;;5.90;1.70;;;11.00;90.60;;;;;;5093961;28;20379;-62
2023/04/25 12:56:21;;;;;;;5.22;1.80;;;10.90;91.10;;;;;;5093890;28;20048;-63
2023/04/25 12:58:52;;;;;;;6.13;1.88;;;10.80;90.50;;;;;;5094167;28;20126;-63
2023/04/25 13:01:19;;;;;;;6.28;2.10;;;10.70;90.20;;;;;;5093907;28;20071;-61
2023/04/25 13:03:46;;;;;;;5.32;1.92;;;10.70;90.10;;;;;;5094266;28;20101;-63